createdAt,value
2018-08-03T00:01:54.165Z,10.47
2018-08-03T00:04:22.557Z,9.93
2018-08-03T00:06:51.157Z,9.53
2018-08-03T00:09:19.804Z,10.70
2018-08-03T00:11:48.616Z,10.37
2018-08-03T00:14:17.302Z,9.63
2018-08-03T00:16:45.591Z,9.53
2018-08-03T00:19:14.100Z,8.93
2018-08-03T00:21:42.441Z,9.47
2018-08-03T00:24:11.043Z,9.70
2018-08-03T00:26:50.520Z,9.20
2018-08-03T00:29:19.287Z,8.90
2018-08-03T00:31:47.591Z,9.33
2018-08-03T00:34:15.855Z,9.53
2018-08-03T00:36:44.104Z,9.63
2018-08-03T00:39:12.812Z,9.80
2018-08-03T00:41:41.577Z,10.17
2018-08-03T00:44:09.880Z,9.73
2018-08-03T00:46:38.176Z,9.70
2018-08-03T00:49:08.035Z,10.10
2018-08-03T00:51:36.757Z,9.60
2018-08-03T00:54:06.788Z,8.70
2018-08-03T00:56:35.336Z,9.00
2018-08-03T00:59:05.421Z,9.50
2018-08-03T01:01:34.182Z,8.83
2018-08-03T01:04:02.781Z,8.70
2018-08-03T01:06:31.164Z,8.70
2018-08-03T01:08:59.468Z,8.50
2018-08-03T01:11:27.747Z,8.50
2018-08-03T01:13:56.473Z,8.70
2018-08-03T01:16:24.732Z,8.40
2018-08-03T01:18:53.023Z,8.20
2018-08-03T01:21:21.708Z,8.13
2018-08-03T01:23:50.712Z,8.53
2018-08-03T01:26:19.933Z,8.40
2018-08-03T01:28:48.240Z,7.83
2018-08-03T01:31:16.537Z,8.10
2018-08-03T01:33:44.735Z,8.30
2018-08-03T01:36:13.431Z,8.20
2018-08-03T01:38:41.713Z,8.17
2018-08-03T01:41:10.304Z,8.90
2018-08-03T01:43:38.599Z,8.73
2018-08-03T01:46:07.380Z,8.33
2018-08-03T01:48:35.694Z,8.77
2018-08-03T01:51:03.987Z,8.53
2018-08-03T01:53:32.279Z,8.80
2018-08-03T01:56:00.616Z,8.57
2018-08-03T01:58:28.891Z,8.80
2018-08-03T02:00:57.665Z,8.67
2018-08-03T02:03:26.373Z,8.93
2018-08-03T02:05:54.951Z,9.03
2018-08-03T02:08:23.648Z,7.93
2018-08-03T02:10:52.229Z,8.80
2018-08-03T02:13:20.785Z,8.57
2018-08-03T02:15:49.359Z,7.87
2018-08-03T02:18:17.623Z,8.63
2018-08-03T02:20:46.339Z,8.03
2018-08-03T02:23:14.954Z,8.30
2018-08-03T02:25:43.498Z,8.77
2018-08-03T02:28:11.760Z,8.73
2018-08-03T02:30:40.053Z,8.70
2018-08-03T02:33:08.744Z,8.40
2018-08-03T02:35:37.328Z,8.70
2018-08-03T02:38:06.116Z,7.77
2018-08-03T02:40:34.714Z,8.83
2018-08-03T02:43:03.324Z,8.90
2018-08-03T02:45:32.182Z,9.00
2018-08-03T02:48:00.455Z,8.27
2018-08-03T02:50:29.174Z,8.30
2018-08-03T02:52:57.944Z,7.73
2018-08-03T02:55:26.859Z,7.90
2018-08-03T02:57:55.435Z,7.73
2018-08-03T03:00:24.459Z,8.33
2018-08-03T03:02:53.115Z,8.47
2018-08-03T03:05:21.746Z,8.13
2018-08-03T03:07:50.119Z,7.97
2018-08-03T03:10:18.771Z,8.40
2018-08-03T03:12:47.444Z,8.03
2018-08-03T03:15:16.144Z,7.27
2018-08-03T03:17:44.511Z,7.13
2018-08-03T03:20:12.794Z,7.60
2018-08-03T03:22:41.463Z,6.50
2018-08-03T03:25:09.867Z,7.53
2018-08-03T03:27:38.464Z,7.30
2018-08-03T03:30:07.944Z,7.30
2018-08-03T03:32:36.436Z,7.40
2018-08-03T03:35:05.144Z,7.03
2018-08-03T03:37:33.391Z,6.70
2018-08-03T03:40:02.236Z,7.73
2018-08-03T03:42:30.548Z,7.50
2018-08-03T03:44:59.315Z,7.63
2018-08-03T03:47:27.600Z,6.97
2018-08-03T03:49:55.900Z,6.87
2018-08-03T03:52:24.163Z,6.80
2018-08-03T03:54:52.714Z,7.50
2018-08-03T03:57:21.196Z,7.97
2018-08-03T03:59:49.450Z,7.17
2018-08-03T04:02:17.951Z,6.93
2018-08-03T04:04:46.634Z,7.43
2018-08-03T04:07:15.326Z,7.20
2018-08-03T04:09:44.090Z,7.13
2018-08-03T04:12:12.389Z,7.53
2018-08-03T04:14:41.091Z,6.87
2018-08-03T04:17:09.691Z,7.10
2018-08-03T04:19:37.951Z,6.60
2018-08-03T04:22:06.568Z,7.10
2018-08-03T04:24:35.211Z,7.53
2018-08-03T04:27:03.912Z,7.67
2018-08-03T04:29:32.303Z,7.17
2018-08-03T04:32:01.013Z,7.47
2018-08-03T04:34:29.575Z,6.60
2018-08-03T04:36:58.476Z,6.67
2018-08-03T04:39:26.986Z,6.77
2018-08-03T04:41:55.358Z,7.07
2018-08-03T04:44:23.752Z,6.47
2018-08-03T04:46:52.384Z,6.10
2018-08-03T04:49:20.689Z,7.10
2018-08-03T04:51:49.506Z,7.27
2018-08-03T04:54:17.935Z,6.63
2018-08-03T04:56:46.443Z,7.20
2018-08-03T04:59:14.760Z,7.10
2018-08-03T05:01:43.403Z,7.30
2018-08-03T05:04:11.983Z,6.37
2018-08-03T05:06:40.222Z,6.50
2018-08-03T05:09:09.395Z,6.93
2018-08-03T05:11:37.811Z,7.00
2018-08-03T05:14:07.254Z,6.70
2018-08-03T05:16:35.823Z,6.63
2018-08-03T05:19:04.517Z,6.63
2018-08-03T05:21:33.195Z,6.50
2018-08-03T05:24:02.100Z,6.70
2018-08-03T05:26:30.470Z,6.83
2018-08-03T05:28:59.239Z,6.40
2018-08-03T05:31:27.615Z,6.70
2018-08-03T05:33:56.259Z,6.80
2018-08-03T05:36:25.046Z,6.90
2018-08-03T05:38:53.382Z,6.73
2018-08-03T05:41:21.723Z,6.33
2018-08-03T05:43:50.435Z,6.53
2018-08-03T05:46:18.898Z,6.50
2018-08-03T05:48:47.387Z,6.83
2018-08-03T05:51:16.123Z,6.30
2018-08-03T05:53:44.815Z,6.87
2018-08-03T05:56:13.327Z,6.27
2018-08-03T05:58:41.630Z,6.43
2018-08-03T06:01:09.986Z,6.50
2018-08-03T06:03:38.321Z,6.40
2018-08-03T06:06:06.747Z,7.50
2018-08-03T06:08:35.131Z,6.73
2018-08-03T06:11:03.432Z,6.30
2018-08-03T06:13:31.906Z,5.50
2018-08-03T06:16:00.551Z,6.07
2018-08-03T06:18:29.184Z,5.73
2018-08-03T06:20:59.360Z,6.00
2018-08-03T06:23:28.196Z,5.97
2018-08-03T06:25:56.900Z,5.87
2018-08-03T06:28:25.147Z,5.40
2018-08-03T06:30:53.501Z,5.80
2018-08-03T06:33:21.780Z,5.60
2018-08-03T06:35:50.160Z,6.77
2018-08-03T06:38:18.473Z,6.33
2018-08-03T06:40:46.763Z,6.00
2018-08-03T06:43:15.440Z,6.20
2018-08-03T06:45:43.765Z,5.97
2018-08-03T06:48:12.474Z,6.07
2018-08-03T06:50:42.120Z,6.47
2018-08-03T06:53:10.544Z,6.00
2018-08-03T06:55:38.858Z,6.27
2018-08-03T06:58:07.147Z,5.80
2018-08-03T07:00:35.742Z,6.10
2018-08-03T07:03:04.172Z,6.00
2018-08-03T07:05:32.535Z,6.30
2018-08-03T07:08:01.143Z,5.77
2018-08-03T07:10:30.295Z,5.70
2018-08-03T07:12:58.566Z,5.80
2018-08-03T07:15:26.970Z,6.17
2018-08-03T07:17:55.592Z,6.03
2018-08-03T07:20:24.190Z,5.70
2018-08-03T07:22:52.454Z,5.90
2018-08-03T07:25:20.972Z,5.87
2018-08-03T07:27:49.424Z,6.03
2018-08-03T07:30:17.915Z,6.10
2018-08-03T07:32:46.893Z,6.10
2018-08-03T07:35:15.467Z,6.50
2018-08-03T07:37:43.988Z,6.27
2018-08-03T07:40:12.573Z,6.20
2018-08-03T07:42:40.981Z,6.53
2018-08-03T07:45:09.460Z,6.53
2018-08-03T07:47:37.921Z,6.20
2018-08-03T07:50:11.582Z,6.33
2018-08-03T07:52:45.406Z,5.60
2018-08-03T07:55:18.672Z,5.73
2018-08-03T07:57:47.193Z,5.43
2018-08-03T08:00:15.907Z,6.00
2018-08-03T08:02:44.342Z,5.80
2018-08-03T08:05:12.788Z,5.37
2018-08-03T08:07:41.300Z,6.07
2018-08-03T08:10:09.742Z,6.43
2018-08-03T08:12:38.163Z,5.53
2018-08-03T08:15:18.638Z,5.40
2018-08-03T08:17:47.113Z,5.40
2018-08-03T08:20:15.826Z,5.63
2018-08-03T08:22:44.243Z,5.37
2018-08-03T08:25:12.706Z,5.57
2018-08-03T08:27:41.204Z,6.00
2018-08-03T08:30:09.636Z,6.40
2018-08-03T08:32:38.031Z,6.07
2018-08-03T08:35:06.477Z,5.87
2018-08-03T08:37:34.793Z,5.77
2018-08-03T08:40:03.299Z,6.00
2018-08-03T08:42:31.811Z,5.77
2018-08-03T08:45:00.196Z,5.70
2018-08-03T08:47:28.577Z,5.03
2018-08-03T08:49:56.963Z,4.47
2018-08-03T08:52:52.472Z,5.00
2018-08-03T08:55:20.866Z,4.70
2018-08-03T08:57:49.437Z,5.00
2018-08-03T09:00:18.083Z,4.97
2018-08-03T09:02:46.547Z,4.43
2018-08-03T09:05:14.966Z,4.63
2018-08-03T09:07:43.473Z,4.60
2018-08-03T09:10:11.908Z,4.20
2018-08-03T09:12:40.283Z,4.37
2018-08-03T09:15:34.955Z,4.47
2018-08-03T09:18:03.350Z,4.60
2018-08-03T09:20:31.915Z,4.63
2018-08-03T09:23:00.295Z,4.33
2018-08-03T09:25:28.891Z,4.53
2018-08-03T09:27:57.198Z,4.28
2018-08-03T09:30:25.480Z,4.60
2018-08-03T09:32:53.798Z,4.30
2018-08-03T09:35:22.270Z,4.80
2018-08-03T09:37:50.990Z,4.37
2018-08-03T09:40:19.856Z,4.22
2018-08-03T09:42:48.167Z,4.45
2018-08-03T09:48:09.636Z,4.28
2018-08-03T09:50:38.105Z,4.50
2018-08-03T09:53:06.609Z,4.60
2018-08-03T09:55:35.081Z,4.35
2018-08-03T09:58:03.640Z,4.17
2018-08-03T10:00:37.792Z,4.47
2018-08-03T10:03:06.205Z,4.22
2018-08-03T10:05:34.553Z,4.30
2018-08-03T10:08:03.143Z,4.25
2018-08-03T10:10:31.915Z,4.53
2018-08-03T10:13:00.711Z,4.55
2018-08-03T10:15:43.867Z,4.72
2018-08-03T10:18:12.390Z,4.83
2018-08-03T10:20:40.856Z,5.00
2018-08-03T10:23:09.727Z,5.15
2018-08-03T10:25:38.148Z,5.28
2018-08-03T10:28:06.531Z,4.78
2018-08-03T10:30:35.347Z,4.95
2018-08-03T10:33:03.916Z,5.28
2018-08-03T10:35:32.397Z,5.20
2018-08-03T10:38:00.907Z,5.65
2018-08-03T10:40:29.495Z,10.63
2018-08-03T10:42:57.956Z,11.08
2018-08-03T10:45:26.473Z,9.00
2018-08-03T10:47:54.999Z,7.97
2018-08-03T10:50:23.432Z,5.90
2018-08-03T10:52:51.812Z,5.80
2018-08-03T10:55:20.287Z,5.50
2018-08-03T10:57:48.871Z,5.37
2018-08-03T11:00:28.219Z,5.00
2018-08-03T11:02:57.223Z,5.70
2018-08-03T11:05:25.935Z,4.72
2018-08-03T11:07:54.279Z,4.60
2018-08-03T11:10:22.942Z,4.47
2018-08-03T11:12:51.903Z,4.45
2018-08-03T11:15:52.383Z,4.40
2018-08-03T11:18:20.796Z,3.90
2018-08-03T11:20:49.260Z,4.65
2018-08-03T11:23:17.680Z,4.47
2018-08-03T11:25:46.226Z,4.60
2018-08-03T11:28:14.767Z,4.28
2018-08-03T11:30:43.202Z,4.45
2018-08-03T11:33:11.682Z,4.00
2018-08-03T11:35:40.160Z,4.50
2018-08-03T11:38:08.600Z,4.55
2018-08-03T11:40:37.051Z,4.47
2018-08-03T11:43:05.650Z,4.45
2018-08-03T11:45:34.366Z,4.95
2018-08-03T11:48:03.228Z,5.10
2018-08-03T11:50:31.844Z,4.80
2018-08-03T11:53:00.240Z,4.72
2018-08-03T11:55:55.512Z,4.87
2018-08-03T11:58:25.547Z,4.83
2018-08-03T12:00:53.938Z,4.58
2018-08-03T12:03:22.357Z,5.00
2018-08-03T12:05:50.717Z,4.80
2018-08-03T12:08:19.426Z,4.47
2018-08-03T12:10:47.889Z,4.25
2018-08-03T12:13:16.413Z,4.55
2018-08-03T12:16:08.452Z,5.50
2018-08-03T12:18:36.847Z,4.40
2018-08-03T12:21:05.636Z,5.00
2018-08-03T12:23:34.097Z,4.87
2018-08-03T12:26:02.541Z,4.80
2018-08-03T12:28:31.001Z,5.10
2018-08-03T12:30:59.484Z,4.85
2018-08-03T12:33:27.965Z,5.28
2018-08-03T12:35:58.640Z,4.83
2018-08-03T12:38:27.463Z,4.90
2018-08-03T12:40:56.567Z,4.65
2018-08-03T12:43:25.231Z,4.45
2018-08-03T12:45:53.675Z,4.30
2018-08-03T12:48:22.234Z,4.83
2018-08-03T12:50:50.586Z,4.50
2018-08-03T12:53:19.202Z,4.60
2018-08-03T12:55:47.451Z,4.50
2018-08-03T12:58:16.185Z,4.40
2018-08-03T13:00:44.489Z,4.30
2018-08-03T13:03:13.056Z,4.50
2018-08-03T13:05:41.724Z,4.30
2018-08-03T13:08:10.174Z,4.37
2018-08-03T13:10:38.533Z,4.53
2018-08-03T13:13:07.076Z,4.08
2018-08-03T13:16:08.509Z,4.72
2018-08-03T13:18:36.974Z,4.83
2018-08-03T13:21:16.228Z,5.03
2018-08-03T13:23:56.017Z,4.72
2018-08-03T13:26:25.159Z,4.00
2018-08-03T13:28:54.060Z,4.42
2018-08-03T13:31:23.616Z,4.85
2018-08-03T13:33:52.293Z,4.33
2018-08-03T13:36:21.644Z,4.60
2018-08-03T13:38:50.134Z,4.55
2018-08-03T13:41:18.939Z,4.80
2018-08-03T13:43:47.454Z,4.20
2018-08-03T13:46:16.456Z,4.47
2018-08-03T13:48:45.952Z,4.47
2018-08-03T13:51:15.439Z,4.22
2018-08-03T13:53:44.790Z,4.78
2018-08-03T13:56:14.075Z,4.30
2018-08-03T13:58:43.698Z,4.87
2018-08-03T14:01:23.198Z,4.15
2018-08-03T14:03:58.661Z,4.10
2018-08-03T14:06:27.065Z,4.05
2018-08-03T14:08:55.527Z,4.50
2018-08-03T14:11:31.318Z,4.62
2018-08-03T14:14:00.032Z,4.50
2018-08-03T14:16:38.296Z,4.40
2018-08-03T14:19:06.827Z,4.37
2018-08-03T14:21:35.380Z,4.35
2018-08-03T14:24:04.381Z,4.30
2018-08-03T14:26:32.695Z,4.50
2018-08-03T14:29:01.297Z,4.45
2018-08-03T14:31:30.312Z,5.00
2018-08-03T14:33:58.825Z,4.58
2018-08-03T14:36:27.218Z,4.67
2018-08-03T14:38:55.624Z,4.65
2018-08-03T14:41:24.109Z,4.47
2018-08-03T14:43:52.788Z,5.00
2018-08-03T14:46:21.349Z,4.80
2018-08-03T14:48:49.774Z,4.58
2018-08-03T14:51:18.296Z,4.62
2018-08-03T14:53:47.184Z,4.55
2018-08-03T14:56:15.685Z,4.62
2018-08-03T14:58:44.153Z,4.55
2018-08-03T15:01:12.659Z,4.67
2018-08-03T15:03:40.977Z,4.10
2018-08-03T15:06:09.434Z,4.47
2018-08-03T15:08:38.191Z,4.45
2018-08-03T15:11:07.255Z,4.85
2018-08-03T15:13:35.649Z,4.10
2018-08-03T15:16:43.395Z,4.80
2018-08-03T15:19:11.850Z,4.97
2018-08-03T15:21:40.414Z,4.45
2018-08-03T15:24:10.012Z,4.47
2018-08-03T15:26:38.443Z,4.20
2018-08-03T15:29:06.970Z,4.78
2018-08-03T15:31:35.351Z,4.80
2018-08-03T15:34:03.782Z,4.50
2018-08-03T15:36:32.108Z,4.62
2018-08-03T15:39:00.494Z,4.30
2018-08-03T15:41:28.895Z,4.60
2018-08-03T15:43:57.560Z,4.95
2018-08-03T15:46:26.254Z,4.75
2018-08-03T15:48:54.767Z,4.72
2018-08-03T15:51:23.231Z,5.05
2018-08-03T15:53:51.705Z,4.50
2018-08-03T15:56:20.212Z,4.45
2018-08-03T15:58:48.736Z,4.50
2018-08-03T16:01:17.196Z,4.92
2018-08-03T16:03:45.845Z,5.12
2018-08-03T16:06:14.303Z,4.70
2018-08-03T16:08:42.848Z,4.42
2018-08-03T16:11:11.377Z,4.92
2018-08-03T16:13:39.878Z,4.08
2018-08-03T16:17:00.628Z,4.22
2018-08-03T16:19:29.098Z,4.42
2018-08-03T16:21:57.552Z,4.42
2018-08-03T16:24:26.064Z,4.58
2018-08-03T16:26:54.557Z,4.60
2018-08-03T16:29:22.928Z,4.47
2018-08-03T16:31:51.397Z,4.67
2018-08-03T16:34:19.728Z,4.58
2018-08-03T16:36:47.985Z,4.58
2018-08-03T16:39:17.188Z,4.83
2018-08-03T16:41:45.580Z,4.50
2018-08-03T16:44:14.145Z,4.12
2018-08-03T16:46:42.960Z,3.90
2018-08-03T16:49:12.521Z,3.87
2018-08-03T16:51:41.045Z,3.80
2018-08-03T16:54:10.911Z,4.15
2018-08-03T16:56:39.457Z,4.42
2018-08-03T16:59:07.855Z,4.08
2018-08-03T17:01:36.236Z,4.00
2018-08-03T17:04:04.795Z,4.03
2018-08-03T17:06:33.336Z,4.10
2018-08-03T17:09:01.711Z,4.10
2018-08-03T17:11:30.064Z,4.08
2018-08-03T17:13:58.492Z,4.00
2018-08-03T17:17:04.944Z,4.30
2018-08-03T17:19:33.379Z,4.20
2018-08-03T17:22:01.789Z,4.58
2018-08-03T17:24:30.220Z,4.03
2018-08-03T17:26:58.677Z,4.20
2018-08-03T17:29:27.163Z,3.77
2018-08-03T17:31:55.627Z,3.98
2018-08-03T17:34:24.083Z,4.37
2018-08-03T17:36:52.713Z,4.22
2018-08-03T17:39:21.063Z,4.20
2018-08-03T17:41:49.516Z,4.25
2018-08-03T17:44:17.999Z,3.90
2018-08-03T17:46:46.491Z,4.58
2018-08-03T17:49:14.904Z,4.53
2018-08-03T17:51:43.250Z,4.45
2018-08-03T17:54:12.713Z,4.60
2018-08-03T17:56:41.183Z,4.28
2018-08-03T17:59:10.603Z,4.50
2018-08-03T18:01:39.085Z,4.80
2018-08-03T18:04:07.576Z,5.10
2018-08-03T18:06:36.052Z,4.97
2018-08-03T18:09:06.058Z,5.40
2018-08-03T18:11:34.522Z,4.75
2018-08-03T18:14:02.986Z,5.50
2018-08-03T18:17:14.040Z,5.15
2018-08-03T18:19:42.443Z,5.17
2018-08-03T18:22:10.940Z,5.53
2018-08-03T18:24:39.368Z,5.47
2018-08-03T18:27:07.751Z,6.28
2018-08-03T18:29:36.139Z,6.17
2018-08-03T18:32:04.692Z,5.70
2018-08-03T18:34:33.152Z,6.95
2018-08-03T18:37:01.726Z,6.37
2018-08-03T18:39:30.269Z,6.47
2018-08-03T18:41:58.944Z,6.25
2018-08-03T18:44:27.425Z,6.05
2018-08-03T18:46:55.828Z,6.10
2018-08-03T18:49:24.351Z,7.12
2018-08-03T18:51:52.859Z,7.30
2018-08-03T18:54:21.274Z,7.50
2018-08-03T18:56:49.654Z,8.23
2018-08-03T18:59:18.240Z,9.48
2018-08-03T19:01:46.795Z,8.70
2018-08-03T19:04:15.285Z,7.78
2018-08-03T19:06:43.915Z,7.35
2018-08-03T19:09:12.621Z,7.28
2018-08-03T19:11:41.084Z,7.65
2018-08-03T19:14:10.700Z,7.53
2018-08-03T19:17:09.647Z,7.20
2018-08-03T19:19:38.204Z,7.03
2018-08-03T19:22:07.003Z,7.25
2018-08-03T19:24:35.933Z,7.35
2018-08-03T19:27:04.827Z,7.00
2018-08-03T19:29:33.595Z,6.57
2018-08-03T19:32:02.514Z,6.50
2018-08-03T19:34:31.824Z,7.40
2018-08-03T19:37:00.719Z,8.27
2018-08-03T19:39:29.543Z,8.67
2018-08-03T19:41:58.640Z,10.10
2018-08-03T19:44:27.163Z,9.37
2018-08-03T19:46:55.561Z,8.10
2018-08-03T19:49:24.183Z,7.30
2018-08-03T19:51:52.819Z,7.47
2018-08-03T19:54:21.683Z,6.87
2018-08-03T19:56:50.928Z,6.63
2018-08-03T19:59:19.861Z,6.83
2018-08-03T20:01:48.961Z,7.33
2018-08-03T20:04:17.779Z,7.30
2018-08-03T20:06:47.336Z,6.97
2018-08-03T20:09:16.546Z,6.63
2018-08-03T20:11:45.793Z,7.20
2018-08-03T20:14:15.424Z,7.10
2018-08-03T20:17:31.648Z,7.07
2018-08-03T20:20:00.767Z,8.13
2018-08-03T20:22:29.725Z,7.50
2018-08-03T20:24:58.829Z,7.60
2018-08-03T20:30:54.951Z,7.30
2018-08-03T20:33:23.851Z,8.50
2018-08-03T20:35:52.541Z,9.07
2018-08-03T20:38:21.131Z,10.53
2018-08-03T20:40:49.967Z,9.10
2018-08-03T20:43:18.803Z,8.70
2018-08-03T20:45:47.639Z,7.13
2018-08-03T20:48:16.378Z,7.67
2018-08-03T20:50:45.528Z,8.07
2018-08-03T20:53:14.076Z,8.20
2018-08-03T20:55:42.491Z,7.87
2018-08-03T20:58:10.986Z,8.40
2018-08-03T21:00:39.456Z,8.20
2018-08-03T21:03:07.941Z,8.83
2018-08-03T21:05:36.401Z,8.33
2018-08-03T21:08:05.217Z,8.33
2018-08-03T21:10:34.115Z,7.90
2018-08-03T21:13:02.878Z,8.90
2018-08-03T21:16:20.276Z,8.47
2018-08-03T21:18:48.821Z,8.73
2018-08-03T21:21:17.585Z,8.67
2018-08-03T21:23:46.051Z,8.70
2018-08-03T21:26:15.031Z,7.73
2018-08-03T21:28:43.795Z,7.77
2018-08-03T21:31:12.772Z,7.10
2018-08-03T21:33:41.199Z,7.27
2018-08-03T21:36:09.765Z,7.87
2018-08-03T21:38:38.241Z,7.63
2018-08-03T21:41:06.638Z,7.83
2018-08-03T21:43:35.490Z,7.83
2018-08-03T21:46:03.873Z,7.90
2018-08-03T21:48:32.159Z,7.90
2018-08-03T21:51:00.846Z,7.57
2018-08-03T21:53:29.186Z,7.70
2018-08-03T21:55:57.623Z,8.33
2018-08-03T21:58:26.501Z,8.47
2018-08-03T22:00:55.268Z,8.27
2018-08-03T22:03:24.002Z,8.10
2018-08-03T22:05:52.417Z,8.73
2018-08-03T22:08:21.058Z,8.17
2018-08-03T22:10:49.678Z,8.20
2018-08-03T22:13:18.027Z,8.17
2018-08-03T22:15:46.724Z,7.80
2018-08-03T22:18:15.148Z,7.60
2018-08-03T22:20:45.435Z,7.83
2018-08-03T22:23:14.099Z,8.07
2018-08-03T22:25:43.199Z,7.60
2018-08-03T22:28:11.889Z,7.90
2018-08-03T22:30:40.268Z,8.33
2018-08-03T22:33:08.856Z,8.53
2018-08-03T22:35:37.751Z,8.23
2018-08-03T22:38:06.256Z,7.80
2018-08-03T22:40:34.798Z,7.70
2018-08-03T22:43:03.450Z,8.20
2018-08-03T22:45:32.181Z,8.47
2018-08-03T22:48:01.391Z,8.37
2018-08-03T22:50:29.881Z,8.43
2018-08-03T22:52:58.425Z,7.80
2018-08-03T22:55:27.215Z,7.77
2018-08-03T22:57:55.942Z,8.23
2018-08-03T23:00:24.420Z,9.43
2018-08-03T23:02:52.699Z,9.53
2018-08-03T23:05:21.253Z,9.10
2018-08-03T23:07:50.089Z,8.93
2018-08-03T23:10:18.566Z,8.80
2018-08-03T23:12:47.190Z,8.20
2018-08-03T23:15:15.509Z,8.40
2018-08-03T23:17:43.924Z,8.20
2018-08-03T23:20:12.740Z,9.10
2018-08-03T23:22:41.580Z,8.70
2018-08-03T23:25:09.943Z,8.83
2018-08-03T23:27:38.577Z,9.03
2018-08-03T23:30:08.509Z,8.70
2018-08-03T23:32:37.167Z,8.53
2018-08-03T23:35:05.599Z,8.53
2018-08-03T23:37:34.168Z,8.80
2018-08-03T23:40:02.687Z,8.77
2018-08-03T23:42:31.158Z,7.90
2018-08-03T23:44:59.522Z,8.17
2018-08-03T23:47:28.207Z,8.13
2018-08-03T23:49:56.717Z,8.40
2018-08-03T23:52:25.342Z,9.10
2018-08-03T23:54:53.785Z,9.20
2018-08-03T23:57:22.251Z,8.60
2018-08-03T23:59:50.750Z,8.10
